Map

Track Data

SID SEASON NUMBER BASIN SUBBASIN NAME ISO_TIME NATURE LAT LON WMO_WIND WMO_PRES WMO_AGENCY TRACK_TYPE DIST2LAND LANDFALL IFLAG USA_AGENCY USA_ATCF_ID USA_LAT USA_LON USA_RECORD USA_STATUS USA_WIND USA_PRES USA_SSHS USA_R34_NE USA_R34_SE USA_R34_SW USA_R34_NW USA_R50_NE USA_R50_SE USA_R50_SW USA_R50_NW USA_R64_NE USA_R64_SE USA_R64_SW USA_R64_NW USA_POCI USA_ROCI USA_RMW USA_EYE TOKYO_LAT TOKYO_LON TOKYO_GRADE TOKYO_WIND TOKYO_PRES TOKYO_R50_DIR TOKYO_R50_LONG TOKYO_R50_SHORT TOKYO_R30_DIR TOKYO_R30_LONG TOKYO_R30_SHORT TOKYO_LAND CMA_LAT CMA_LON CMA_CAT CMA_WIND CMA_PRES HKO_LAT HKO_LON HKO_CAT HKO_WIND HKO_PRES NEWDELHI_LAT NEWDELHI_LON NEWDELHI_GRADE NEWDELHI_WIND NEWDELHI_PRES NEWDELHI_CI NEWDELHI_DP NEWDELHI_POCI REUNION_LAT REUNION_LON REUNION_TYPE REUNION_WIND REUNION_PRES REUNION_TNUM REUNION_CI REUNION_RMW REUNION_R34_NE REUNION_R34_SE REUNION_R34_SW REUNION_R34_NW REUNION_R50_NE REUNION_R50_SE REUNION_R50_SW REUNION_R50_NW REUNION_R64_NE REUNION_R64_SE REUNION_R64_SW REUNION_R64_NW BOM_LAT BOM_LON BOM_TYPE BOM_WIND BOM_PRES BOM_TNUM BOM_CI BOM_RMW BOM_R34_NE BOM_R34_SE BOM_R34_SW BOM_R34_NW BOM_R50_NE BOM_R50_SE BOM_R50_SW BOM_R50_NW BOM_R64_NE BOM_R64_SE BOM_R64_SW BOM_R64_NW BOM_ROCI BOM_POCI BOM_EYE BOM_POS_METHOD BOM_PRES_METHOD NADI_LAT NADI_LON NADI_CAT NADI_WIND NADI_PRES WELLINGTON_LAT WELLINGTON_LON WELLINGTON_WIND WELLINGTON_PRES DS824_LAT DS824_LON DS824_STAGE DS824_WIND DS824_PRES TD9636_LAT TD9636_LON TD9636_STAGE TD9636_WIND TD9636_PRES TD9635_LAT TD9635_LON TD9635_WIND TD9635_PRES TD9635_ROCI NEUMANN_LAT NEUMANN_LON NEUMANN_CLASS NEUMANN_WIND NEUMANN_PRES MLC_LAT MLC_LON MLC_CLASS MLC_WIND MLC_PRES USA_GUST BOM_GUST BOM_GUST_PER REUNION_GUST REUNION_GUST_PER USA_SEAHGT USA_SEARAD_NE USA_SEARAD_SE USA_SEARAD_SW USA_SEARAD_NW STORM_SPEED STORM_DIR
1900286N13125 1900 36 WP MM NOT_NAMED 1900-10-12 16:00:00 NR 13.0000 125.000 main 55 43 __________O___ -1 13.0000 125.000 7 14 271
1900286N13125 1900 36 WP MM NOT_NAMED 1900-10-12 18:00:00 NR 13.0094 124.519 main 43 0 __________P___ -1 13.0094 124.519 7 14 271
1900286N13125 1900 36 WP MM NOT_NAMED 1900-10-12 21:00:00 NR 13.0254 123.808 main 0 0 __________P___ -1 13.0254 123.808 7 14 272
1900286N13125 1900 36 WP MM NOT_NAMED 1900-10-13 00:00:00 NR 13.0484 123.128 main 21 11 __________P___ -1 13.0484 123.128 7 13 273
1900286N13125 1900 36 WP MM NOT_NAMED 1900-10-13 03:00:00 NR 13.0842 122.497 main 15 15 __________P___ -1 13.0842 122.497 7 12 274
1900286N13125 1900 36 WP MM NOT_NAMED 1900-10-13 04:00:00 NR 13.1000 122.300 main 34 34 __________O___ -1 13.1000 122.300 4 11 276
1900286N13125 1900 36 WP MM NOT_NAMED 1900-10-13 06:00:00 NR 13.1380 121.930 main 44 0 __________P___ -1 13.1380 121.930 4 10 277
1900286N13125 1900 36 WP MM NOT_NAMED 1900-10-13 09:00:00 NR 13.2082 121.425 main 0 0 __________P___ -1 13.2082 121.425 4 10 279
1900286N13125 1900 36 WP MM NOT_NAMED 1900-10-13 12:00:00 NR 13.2884 120.966 main 0 0 __________P___ -1 13.2884 120.966 4 9 281
1900286N13125 1900 36 WP MM NOT_NAMED 1900-10-13 15:00:00 NR 13.3723 120.538 main 0 0 __________P___ -1 13.3723 120.538 4 8 281
1900286N13125 1900 36 WP MM NOT_NAMED 1900-10-13 16:00:00 NR 13.4000 120.400 main 0 0 __________O___ -1 13.4000 120.400 4 8 282
1900286N13125 1900 36 WP MM NOT_NAMED 1900-10-13 18:00:00 NR 13.4576 120.116 main 24 24 __________P___ -1 13.4576 120.116 4 8 282
1900286N13125 1900 36 WP MM NOT_NAMED 1900-10-13 21:00:00 NR 13.5444 119.710 main 65 65 __________P___ -1 13.5444 119.710 4 8 282
1900286N13125 1900 36 WP MM NOT_NAMED 1900-10-14 00:00:00 NR 13.6233 119.317 main 110 110 __________P___ -1 13.6233 119.317 4 8 281
1900286N13125 1900 36 WP MM NOT_NAMED 1900-10-14 03:00:00 NR 13.6849 118.930 main 155 155 __________P___ -1 13.6849 118.930 4 8 279
1900286N13125 1900 36 WP MM NOT_NAMED 1900-10-14 04:00:00 NR 13.7000 118.800 main 165 165 __________O___ -1 13.7000 118.800 4 8 276
1900286N13125 1900 36 WP MM NOT_NAMED 1900-10-14 06:00:00 NR 13.7249 118.533 main 197 197 __________P___ -1 13.7249 118.533 4 8 274
1900286N13125 1900 36 WP MM NOT_NAMED 1900-10-14 09:00:00 NR 13.7435 118.133 main 240 240 __________P___ -1 13.7435 118.133 4 8 271
1900286N13125 1900 36 WP MM NOT_NAMED 1900-10-14 12:00:00 NR 13.7398 117.733 main 283 283 __________P___ -1 13.7398 117.733 4 8 268
1900286N13125 1900 36 WP MM NOT_NAMED 1900-10-14 15:00:00 NR 13.7137 117.333 main 326 326 __________P___ -1 13.7137 117.333 4 8 266
1900286N13125 1900 36 WP MM NOT_NAMED 1900-10-14 16:00:00 NR 13.7000 117.200 main 336 336 __________O___ -1 13.7000 117.200 4 8 262
1900286N13125 1900 36 WP MM NOT_NAMED 1900-10-14 18:00:00 NR 13.6592 116.923 main 366 366 __________P___ -1 13.6592 116.923 4 8 260
1900286N13125 1900 36 WP MM NOT_NAMED 1900-10-14 21:00:00 NR 13.5790 116.507 main 410 410 __________P___ -1 13.5790 116.507 4 8 258
1900286N13125 1900 36 WP MM NOT_NAMED 1900-10-15 00:00:00 NR 13.4926 116.101 main 441 441 __________P___ -1 13.4926 116.101 4 8 258
1900286N13125 1900 36 WP MM NOT_NAMED 1900-10-15 03:00:00 NR 13.4186 115.720 main 471 471 __________P___ -1 13.4186 115.720 4 7 259
1900286N13125 1900 36 WP MM NOT_NAMED 1900-10-15 04:00:00 NR 13.4000 115.600 main 480 480 __________O___ -1 13.4000 115.600 4 7 264
1900286N13125 1900 36 WP MM NOT_NAMED 1900-10-15 06:00:00 NR 13.3826 115.377 main 499 499 __________P___ -1 13.3826 115.377 4 6 267
1900286N13125 1900 36 WP MM NOT_NAMED 1900-10-15 09:00:00 NR 13.3757 115.068 main 528 528 __________P___ -1 13.3757 115.068 4 6 270
1900286N13125 1900 36 WP MM NOT_NAMED 1900-10-15 12:00:00 NR 13.3834 114.778 main 557 544 __________P___ -1 13.3834 114.778 4 6 272
1900286N13125 1900 36 WP MM NOT_NAMED 1900-10-15 15:00:00 NR 13.3962 114.495 main 544 533 __________P___ -1 13.3962 114.495 4 6 273
1900286N13125 1900 36 WP MM NOT_NAMED 1900-10-15 16:00:00 NR 13.4000 114.400 main 533 512 __________O___ -1 13.4000 114.400 4 6 271
1900286N13125 1900 36 WP MM NOT_NAMED 1900-10-15 18:00:00 NR 13.4000 114.195 main 512 479 __________P___ -1 13.4000 114.195 4 6 270
1900286N13125 1900 36 WP MM NOT_NAMED 1900-10-15 21:00:00 NR 13.4000 113.887 main 479 447 __________P___ -1 13.4000 113.887 4 6 270
1900286N13125 1900 36 WP MM NOT_NAMED 1900-10-16 00:00:00 NR 13.4000 113.584 main 447 415 __________P___ -1 13.4000 113.584 4 6 270
1900286N13125 1900 36 WP MM NOT_NAMED 1900-10-16 03:00:00 NR 13.4000 113.293 main 415 404 __________P___ -1 13.4000 113.293 4 6 270
1900286N13125 1900 36 WP MM NOT_NAMED 1900-10-16 04:00:00 NR 13.4000 113.200 main 404 383 __________O___ -1 13.4000 113.200 4 5 270
1900286N13125 1900 36 WP MM NOT_NAMED 1900-10-16 06:00:00 NR 13.3999 113.025 main 383 361 __________P___ -1 13.3999 113.025 4 5 270
1900286N13125 1900 36 WP MM NOT_NAMED 1900-10-16 09:00:00 NR 13.3998 112.774 main 361 329 __________P___ -1 13.3998 112.774 4 5 270
1900286N13125 1900 36 WP MM NOT_NAMED 1900-10-16 12:00:00 NR 13.3998 112.530 main 329 308 __________P___ -1 13.3998 112.530 4 5 270
1900286N13125 1900 36 WP MM NOT_NAMED 1900-10-16 15:00:00 NR 13.3999 112.284 main 308 297 __________P___ -1 13.3999 112.284 4 5 270
1900286N13125 1900 36 WP MM NOT_NAMED 1900-10-16 16:00:00 NR 13.4000 112.200 main 297 276 __________O___ -1 13.4000 112.200 4 5 270
1900286N13125 1900 36 WP MM NOT_NAMED 1900-10-16 18:00:00 NR 13.3998 112.035 main 276 255 __________P___ -1 13.3998 112.035 4 5 270
1900286N13125 1900 36 WP MM NOT_NAMED 1900-10-16 21:00:00 NR 13.3997 111.783 main 255 223 __________P___ -1 13.3997 111.783 4 5 270
1900286N13125 1900 36 WP MM NOT_NAMED 1900-10-17 00:00:00 NR 13.3997 111.512 main 223 192 __________P___ -1 13.3997 111.512 4 6 270
1900286N13125 1900 36 WP MM NOT_NAMED 1900-10-17 03:00:00 NR 13.3999 111.210 main 192 182 __________P___ -1 13.3999 111.210 4 6 270
1900286N13125 1900 36 WP MM NOT_NAMED 1900-10-17 04:00:00 NR 13.4000 111.100 main 182 161 __________O___ -1 13.4000 111.100 4 7 270
1900286N13125 1900 36 WP MM NOT_NAMED 1900-10-17 06:00:00 NR 13.3974 110.867 main 161 121 __________P___ -1 13.3974 110.867 4 7 269
1900286N13125 1900 36 WP MM NOT_NAMED 1900-10-17 09:00:00 NR 13.3933 110.486 main 121 85 __________P___ -1 13.3933 110.486 4 8 270
1900286N13125 1900 36 WP MM NOT_NAMED 1900-10-17 12:00:00 NR 13.3920 110.076 main 85 32 __________P___ -1 13.3920 110.076 4 8 270
1900286N13125 1900 36 WP MM NOT_NAMED 1900-10-17 15:00:00 NR 13.3966 109.646 main 32 21 __________P___ -1 13.3966 109.646 4 8 271
1900286N13125 1900 36 WP MM NOT_NAMED 1900-10-17 16:00:00 NR 13.4000 109.500 main 21 0 __________O___ -1 13.4000 109.500 7 9 272
1900286N13125 1900 36 WP MM NOT_NAMED 1900-10-17 18:00:00 NR 13.4101 109.205 main 0 0 __________P___ -1 13.4101 109.205 7 9 273
1900286N13125 1900 36 WP MM NOT_NAMED 1900-10-17 21:00:00 NR 13.4319 108.758 main 0 0 __________P___ -1 13.4319 108.758 7 9 273
1900286N13125 1900 36 WP MM NOT_NAMED 1900-10-18 00:00:00 NR 13.4594 108.306 main 0 0 __________P___ -1 13.4594 108.306 7 9 274
1900286N13125 1900 36 WP MM NOT_NAMED 1900-10-18 03:00:00 NR 13.4897 107.852 main 0 0 __________P___ -1 13.4897 107.852 7 9 274
1900286N13125 1900 36 WP MM NOT_NAMED 1900-10-18 04:00:00 NR 13.5000 107.700 main 0 __________O___ -1 13.5000 107.700 7 9 274

Digital Typhoon Data and Search

About IBTrACS Database

This database is a web-friendly format of International Best Track Archive for Climate Stewardship (IBTrACS), a global best track data archive curated by NOAA dating back to 1842.

Updated: 2021-11-26